< < Back
Terminal Aerodrome Forecast


Current Version              Previous Versions:   1  2  3  4  5  6  7  8  9  

Terminal Aerodrome Forecast

425
FTUS42 KGSP 220900 AAA
TAFAVL
TAF AMD
KAVL 220900Z 2209/2306 34008KT P6SM SCT050
     FM221300 35009G16KT P6SM FEW050
     FM230300 35005KT P6SM SKC=



Latest METAR

791
SAUS70 KWBC 221000 RRS
MTRAVL
METAR KAVL 220954Z AUTO 00000KT 10SM CLR 13/09 A3006 RMK AO2 SLP159
T01330094


USA.gov is the U.S. government's official web portal to all federal, state and local government web resources and services.